sensor_id;sensor_type;location;lat;lon;timestamp;temperature;humidity
46608;DHT22;32330;51.936;7.184;2024-01-30T00:00:37;5.40;99.90
46608;DHT22;32330;51.936;7.184;2024-01-30T00:03:04;5.40;99.90
46608;DHT22;32330;51.936;7.184;2024-01-30T00:05:32;5.50;99.90
46608;DHT22;32330;51.936;7.184;2024-01-30T00:07:59;5.50;99.90
46608;DHT22;32330;51.936;7.184;2024-01-30T00:10:26;5.50;99.90
46608;DHT22;32330;51.936;7.184;2024-01-30T00:12:54;5.50;99.90
46608;DHT22;32330;51.936;7.184;2024-01-30T00:15:21;5.60;99.90
46608;DHT22;32330;51.936;7.184;2024-01-30T00:17:47;5.50;99.90
46608;DHT22;32330;51.936;7.184;2024-01-30T00:20:14;5.40;99.90
46608;DHT22;32330;51.936;7.184;2024-01-30T00:22:43;5.50;99.90
46608;DHT22;32330;51.936;7.184;2024-01-30T00:25:10;5.40;99.90
46608;DHT22;32330;51.936;7.184;2024-01-30T00:27:37;5.40;99.90
46608;DHT22;32330;51.936;7.184;2024-01-30T00:30:05;5.40;99.90
46608;DHT22;32330;51.936;7.184;2024-01-30T00:32:32;5.40;99.90
46608;DHT22;32330;51.936;7.184;2024-01-30T00:34:59;5.40;99.90
46608;DHT22;32330;51.936;7.184;2024-01-30T00:37:26;5.40;99.90
46608;DHT22;32330;51.936;7.184;2024-01-30T00:39:54;5.50;99.90
46608;DHT22;32330;51.936;7.184;2024-01-30T00:42:21;5.50;99.90
46608;DHT22;32330;51.936;7.184;2024-01-30T00:44:49;5.60;99.90
46608;DHT22;32330;51.936;7.184;2024-01-30T00:47:16;5.60;99.90
46608;DHT22;32330;51.936;7.184;2024-01-30T00:49:43;5.60;99.90
46608;DHT22;32330;51.936;7.184;2024-01-30T00:52:10;5.70;99.90
46608;DHT22;32330;51.936;7.184;2024-01-30T00:54:37;5.70;99.90
46608;DHT22;32330;51.936;7.184;2024-01-30T00:57:05;5.70;99.90
46608;DHT22;32330;51.936;7.184;2024-01-30T00:59:32;5.80;99.90
46608;DHT22;32330;51.936;7.184;2024-01-30T01:02:00;5.70;99.90
46608;DHT22;32330;51.936;7.184;2024-01-30T01:04:27;5.80;99.90
46608;DHT22;32330;51.936;7.184;2024-01-30T01:06:54;5.80;99.90
46608;DHT22;32330;51.936;7.184;2024-01-30T01:09:20;5.80;99.90
46608;DHT22;32330;51.936;7.184;2024-01-30T01:11:47;5.90;99.90
46608;DHT22;32330;51.936;7.184;2024-01-30T01:14:16;5.90;99.90
46608;DHT22;32330;51.936;7.184;2024-01-30T01:16:43;5.90;99.90
46608;DHT22;32330;51.936;7.184;2024-01-30T01:19:10;5.90;99.90
46608;DHT22;32330;51.936;7.184;2024-01-30T01:21:37;5.90;99.90
46608;DHT22;32330;51.936;7.184;2024-01-30T01:24:04;5.90;99.90
46608;DHT22;32330;51.936;7.184;2024-01-30T01:26:31;6.00;99.90
46608;DHT22;32330;51.936;7.184;2024-01-30T01:28:58;5.90;99.90
46608;DHT22;32330;51.936;7.184;2024-01-30T01:31:27;6.00;99.90
46608;DHT22;32330;51.936;7.184;2024-01-30T01:33:55;5.90;99.90
46608;DHT22;32330;51.936;7.184;2024-01-30T01:36:22;5.90;99.90
46608;DHT22;32330;51.936;7.184;2024-01-30T01:38:49;6.00;99.90
46608;DHT22;32330;51.936;7.184;2024-01-30T01:41:16;5.90;99.90
46608;DHT22;32330;51.936;7.184;2024-01-30T01:43:43;6.00;99.90
46608;DHT22;32330;51.936;7.184;2024-01-30T01:46:10;6.00;99.90
46608;DHT22;32330;51.936;7.184;2024-01-30T01:48:38;6.00;99.90
46608;DHT22;32330;51.936;7.184;2024-01-30T01:51:06;6.00;99.90
46608;DHT22;32330;51.936;7.184;2024-01-30T01:53:34;6.00;99.90
46608;DHT22;32330;51.936;7.184;2024-01-30T01:56:01;6.00;99.90
46608;DHT22;32330;51.936;7.184;2024-01-30T01:58:29;6.00;99.90
46608;DHT22;32330;51.936;7.184;2024-01-30T02:00:57;6.10;99.90
46608;DHT22;32330;51.936;7.184;2024-01-30T02:03:24;6.00;99.90
46608;DHT22;32330;51.936;7.184;2024-01-30T02:05:53;6.10;99.90
46608;DHT22;32330;51.936;7.184;2024-01-30T02:08:21;6.10;99.90
46608;DHT22;32330;51.936;7.184;2024-01-30T02:10:48;6.10;99.90
46608;DHT22;32330;51.936;7.184;2024-01-30T02:13:15;6.10;99.90
46608;DHT22;32330;51.936;7.184;2024-01-30T02:15:42;6.10;99.90
46608;DHT22;32330;51.936;7.184;2024-01-30T02:18:09;6.10;99.90
46608;DHT22;32330;51.936;7.184;2024-01-30T02:20:37;6.10;99.90
46608;DHT22;32330;51.936;7.184;2024-01-30T02:23:07;6.10;99.90
46608;DHT22;32330;51.936;7.184;2024-01-30T02:25:38;6.10;99.90
46608;DHT22;32330;51.936;7.184;2024-01-30T02:28:09;6.10;99.90
46608;DHT22;32330;51.936;7.184;2024-01-30T02:30:37;6.10;99.90
46608;DHT22;32330;51.936;7.184;2024-01-30T02:33:04;6.10;99.90
46608;DHT22;32330;51.936;7.184;2024-01-30T02:35:31;6.10;99.90
46608;DHT22;32330;51.936;7.184;2024-01-30T02:37:59;6.10;99.90
46608;DHT22;32330;51.936;7.184;2024-01-30T02:40:27;6.00;99.90
46608;DHT22;32330;51.936;7.184;2024-01-30T02:42:54;6.00;99.90
46608;DHT22;32330;51.936;7.184;2024-01-30T02:45:21;6.00;99.90
46608;DHT22;32330;51.936;7.184;2024-01-30T02:47:48;6.00;99.90
46608;DHT22;32330;51.936;7.184;2024-01-30T02:50:15;6.00;99.90
46608;DHT22;32330;51.936;7.184;2024-01-30T02:52:42;6.00;99.90
46608;DHT22;32330;51.936;7.184;2024-01-30T02:55:09;6.00;99.90
46608;DHT22;32330;51.936;7.184;2024-01-30T02:57:38;6.00;99.90
46608;DHT22;32330;51.936;7.184;2024-01-30T03:00:06;6.00;99.90
46608;DHT22;32330;51.936;7.184;2024-01-30T03:02:35;6.00;99.90
46608;DHT22;32330;51.936;7.184;2024-01-30T03:05:02;6.00;99.90
46608;DHT22;32330;51.936;7.184;2024-01-30T03:07:30;6.00;99.90
46608;DHT22;32330;51.936;7.184;2024-01-30T03:09:57;6.10;99.90
46608;DHT22;32330;51.936;7.184;2024-01-30T03:12:24;6.10;99.90
46608;DHT22;32330;51.936;7.184;2024-01-30T03:14:52;6.10;99.90
46608;DHT22;32330;51.936;7.184;2024-01-30T03:17:19;6.10;99.90
46608;DHT22;32330;51.936;7.184;2024-01-30T03:19:46;6.10;99.90
46608;DHT22;32330;51.936;7.184;2024-01-30T03:22:13;6.10;99.90
46608;DHT22;32330;51.936;7.184;2024-01-30T03:24:40;6.10;99.90
46608;DHT22;32330;51.936;7.184;2024-01-30T03:27:07;6.00;99.90
46608;DHT22;32330;51.936;7.184;2024-01-30T03:29:34;6.00;99.90
46608;DHT22;32330;51.936;7.184;2024-01-30T03:32:03;6.00;99.90
46608;DHT22;32330;51.936;7.184;2024-01-30T03:34:30;6.00;99.90
46608;DHT22;32330;51.936;7.184;2024-01-30T03:36:57;5.90;99.90
46608;DHT22;32330;51.936;7.184;2024-01-30T03:39:24;5.90;99.90
46608;DHT22;32330;51.936;7.184;2024-01-30T03:41:51;5.90;99.90
46608;DHT22;32330;51.936;7.184;2024-01-30T03:44:18;5.80;99.90
46608;DHT22;32330;51.936;7.184;2024-01-30T03:46:46;5.80;99.90
46608;DHT22;32330;51.936;7.184;2024-01-30T03:49:14;5.80;99.90
46608;DHT22;32330;51.936;7.184;2024-01-30T03:51:41;5.80;99.90
46608;DHT22;32330;51.936;7.184;2024-01-30T03:54:08;5.80;99.90
46608;DHT22;32330;51.936;7.184;2024-01-30T03:56:35;5.70;99.90
46608;DHT22;32330;51.936;7.184;2024-01-30T03:59:02;5.70;99.90
46608;DHT22;32330;51.936;7.184;2024-01-30T04:01:29;5.70;99.90
46608;DHT22;32330;51.936;7.184;2024-01-30T04:03:56;5.70;99.90
46608;DHT22;32330;51.936;7.184;2024-01-30T04:06:24;5.70;99.90
46608;DHT22;32330;51.936;7.184;2024-01-30T04:08:51;5.60;99.90
46608;DHT22;32330;51.936;7.184;2024-01-30T04:11:18;5.60;99.90
46608;DHT22;32330;51.936;7.184;2024-01-30T04:13:46;5.60;99.90
46608;DHT22;32330;51.936;7.184;2024-01-30T04:16:19;5.60;99.90
46608;DHT22;32330;51.936;7.184;2024-01-30T04:18:46;5.60;99.90
46608;DHT22;32330;51.936;7.184;2024-01-30T04:21:13;5.50;99.90
46608;DHT22;32330;51.936;7.184;2024-01-30T04:23:42;5.50;99.90
46608;DHT22;32330;51.936;7.184;2024-01-30T04:26:09;5.60;99.90
46608;DHT22;32330;51.936;7.184;2024-01-30T04:28:36;5.50;99.90
46608;DHT22;32330;51.936;7.184;2024-01-30T04:31:03;5.50;99.90
46608;DHT22;32330;51.936;7.184;2024-01-30T04:33:30;5.60;99.90
46608;DHT22;32330;51.936;7.184;2024-01-30T04:35:57;5.50;99.90
46608;DHT22;32330;51.936;7.184;2024-01-30T04:38:24;5.60;99.90
46608;DHT22;32330;51.936;7.184;2024-01-30T04:40:52;5.60;99.90
46608;DHT22;32330;51.936;7.184;2024-01-30T04:43:19;5.60;99.90
46608;DHT22;32330;51.936;7.184;2024-01-30T04:45:47;5.60;99.90
46608;DHT22;32330;51.936;7.184;2024-01-30T04:48:14;5.50;99.90
46608;DHT22;32330;51.936;7.184;2024-01-30T04:50:41;5.50;99.90
46608;DHT22;32330;51.936;7.184;2024-01-30T04:53:08;5.50;99.90
46608;DHT22;32330;51.936;7.184;2024-01-30T04:55:35;5.50;99.90
46608;DHT22;32330;51.936;7.184;2024-01-30T04:58:04;5.50;99.90
46608;DHT22;32330;51.936;7.184;2024-01-30T05:00:30;5.50;99.90
46608;DHT22;32330;51.936;7.184;2024-01-30T05:02:57;5.50;99.90
46608;DHT22;32330;51.936;7.184;2024-01-30T05:05:24;5.40;99.90
46608;DHT22;32330;51.936;7.184;2024-01-30T05:07:51;5.40;99.90
46608;DHT22;32330;51.936;7.184;2024-01-30T05:10:18;5.40;99.90
46608;DHT22;32330;51.936;7.184;2024-01-30T05:12:45;5.40;99.90
46608;DHT22;32330;51.936;7.184;2024-01-30T05:15:14;5.40;99.90
46608;DHT22;32330;51.936;7.184;2024-01-30T05:17:41;5.40;99.90
46608;DHT22;32330;51.936;7.184;2024-01-30T05:20:09;5.40;99.90
46608;DHT22;32330;51.936;7.184;2024-01-30T05:22:36;5.40;99.90
46608;DHT22;32330;51.936;7.184;2024-01-30T05:25:05;5.30;99.90
46608;DHT22;32330;51.936;7.184;2024-01-30T05:27:32;5.30;99.90
46608;DHT22;32330;51.936;7.184;2024-01-30T05:29:59;5.30;99.90
46608;DHT22;32330;51.936;7.184;2024-01-30T05:32:27;5.30;99.90
46608;DHT22;32330;51.936;7.184;2024-01-30T05:34:54;5.30;99.90
46608;DHT22;32330;51.936;7.184;2024-01-30T05:37:21;5.30;99.90
46608;DHT22;32330;51.936;7.184;2024-01-30T05:39:48;5.30;99.90
46608;DHT22;32330;51.936;7.184;2024-01-30T05:42:15;5.30;99.90
46608;DHT22;32330;51.936;7.184;2024-01-30T05:44:42;5.30;99.90
46608;DHT22;32330;51.936;7.184;2024-01-30T05:47:09;5.30;99.90
46608;DHT22;32330;51.936;7.184;2024-01-30T05:49:38;5.30;99.90
46608;DHT22;32330;51.936;7.184;2024-01-30T05:52:07;5.30;99.90
46608;DHT22;32330;51.936;7.184;2024-01-30T05:54:35;5.30;99.90
46608;DHT22;32330;51.936;7.184;2024-01-30T05:57:02;5.30;99.90
46608;DHT22;32330;51.936;7.184;2024-01-30T05:59:29;5.30;99.90
46608;DHT22;32330;51.936;7.184;2024-01-30T06:01:56;5.30;99.90
46608;DHT22;32330;51.936;7.184;2024-01-30T06:04:23;5.30;99.90
46608;DHT22;32330;51.936;7.184;2024-01-30T06:06:54;5.30;99.90
46608;DHT22;32330;51.936;7.184;2024-01-30T06:09:21;5.40;99.90
46608;DHT22;32330;51.936;7.184;2024-01-30T06:11:53;5.30;99.90
46608;DHT22;32330;51.936;7.184;2024-01-30T06:14:20;5.30;99.90
46608;DHT22;32330;51.936;7.184;2024-01-30T06:16:47;5.30;99.90
46608;DHT22;32330;51.936;7.184;2024-01-30T06:19:14;5.30;99.90
46608;DHT22;32330;51.936;7.184;2024-01-30T06:21:41;5.30;99.90
46608;DHT22;32330;51.936;7.184;2024-01-30T06:24:09;5.30;99.90
46608;DHT22;32330;51.936;7.184;2024-01-30T06:26:36;5.30;99.90
46608;DHT22;32330;51.936;7.184;2024-01-30T06:29:03;5.30;99.90
46608;DHT22;32330;51.936;7.184;2024-01-30T06:31:30;5.30;99.90
46608;DHT22;32330;51.936;7.184;2024-01-30T06:33:57;5.40;99.90
46608;DHT22;32330;51.936;7.184;2024-01-30T06:36:24;5.40;99.90
46608;DHT22;32330;51.936;7.184;2024-01-30T06:38:51;5.50;99.90
46608;DHT22;32330;51.936;7.184;2024-01-30T06:41:20;5.50;99.90
46608;DHT22;32330;51.936;7.184;2024-01-30T06:43:47;5.50;99.90
46608;DHT22;32330;51.936;7.184;2024-01-30T06:46:14;5.50;99.90
46608;DHT22;32330;51.936;7.184;2024-01-30T06:48:41;5.50;99.90
46608;DHT22;32330;51.936;7.184;2024-01-30T06:51:10;5.50;99.90
46608;DHT22;32330;51.936;7.184;2024-01-30T06:53:37;5.50;99.90
46608;DHT22;32330;51.936;7.184;2024-01-30T06:56:05;5.60;99.90
46608;DHT22;32330;51.936;7.184;2024-01-30T06:58:33;5.60;99.90
46608;DHT22;32330;51.936;7.184;2024-01-30T07:01:00;5.60;99.90
46608;DHT22;32330;51.936;7.184;2024-01-30T07:03:27;5.60;99.90
46608;DHT22;32330;51.936;7.184;2024-01-30T07:05:54;5.60;99.90
46608;DHT22;32330;51.936;7.184;2024-01-30T07:08:21;5.70;99.90
46608;DHT22;32330;51.936;7.184;2024-01-30T07:10:49;5.60;99.90
46608;DHT22;32330;51.936;7.184;2024-01-30T07:13:16;5.60;99.90
46608;DHT22;32330;51.936;7.184;2024-01-30T07:15:44;5.60;99.90
46608;DHT22;32330;51.936;7.184;2024-01-30T07:18:12;5.70;99.90
46608;DHT22;32330;51.936;7.184;2024-01-30T07:20:39;5.60;99.90
46608;DHT22;32330;51.936;7.184;2024-01-30T07:23:11;5.70;99.90
46608;DHT22;32330;51.936;7.184;2024-01-30T07:25:39;5.80;99.90
46608;DHT22;32330;51.936;7.184;2024-01-30T07:28:07;5.80;99.90
46608;DHT22;32330;51.936;7.184;2024-01-30T07:30:35;5.90;99.90
46608;DHT22;32330;51.936;7.184;2024-01-30T07:33:03;5.90;99.90
46608;DHT22;32330;51.936;7.184;2024-01-30T07:35:30;5.90;99.90
46608;DHT22;32330;51.936;7.184;2024-01-30T07:37:57;5.90;99.90
46608;DHT22;32330;51.936;7.184;2024-01-30T07:40:24;5.90;99.90
46608;DHT22;32330;51.936;7.184;2024-01-30T07:42:52;5.90;99.90
46608;DHT22;32330;51.936;7.184;2024-01-30T07:45:19;5.90;99.90
46608;DHT22;32330;51.936;7.184;2024-01-30T07:47:48;6.00;99.90
46608;DHT22;32330;51.936;7.184;2024-01-30T07:50:16;6.10;99.90
46608;DHT22;32330;51.936;7.184;2024-01-30T07:52:44;6.10;99.90
46608;DHT22;32330;51.936;7.184;2024-01-30T07:55:11;6.10;99.90
46608;DHT22;32330;51.936;7.184;2024-01-30T07:57:39;6.20;99.90
46608;DHT22;32330;51.936;7.184;2024-01-30T08:00:06;6.20;99.90
46608;DHT22;32330;51.936;7.184;2024-01-30T08:02:34;6.30;99.90
46608;DHT22;32330;51.936;7.184;2024-01-30T08:05:01;6.30;99.90
46608;DHT22;32330;51.936;7.184;2024-01-30T08:07:29;6.40;99.90
46608;DHT22;32330;51.936;7.184;2024-01-30T08:09:56;6.50;99.90
46608;DHT22;32330;51.936;7.184;2024-01-30T08:12:23;6.50;99.90
46608;DHT22;32330;51.936;7.184;2024-01-30T08:14:50;6.60;99.90
46608;DHT22;32330;51.936;7.184;2024-01-30T08:17:17;6.60;99.90
46608;DHT22;32330;51.936;7.184;2024-01-30T08:19:44;6.70;99.90
46608;DHT22;32330;51.936;7.184;2024-01-30T08:22:12;6.70;99.90
46608;DHT22;32330;51.936;7.184;2024-01-30T08:24:40;6.80;99.90
46608;DHT22;32330;51.936;7.184;2024-01-30T08:27:07;6.90;99.90
46608;DHT22;32330;51.936;7.184;2024-01-30T08:29:35;7.00;99.90
46608;DHT22;32330;51.936;7.184;2024-01-30T08:32:04;7.10;99.90
46608;DHT22;32330;51.936;7.184;2024-01-30T08:34:31;7.10;99.90
46608;DHT22;32330;51.936;7.184;2024-01-30T08:36:58;7.20;99.90
46608;DHT22;32330;51.936;7.184;2024-01-30T08:39:25;7.30;99.90
46608;DHT22;32330;51.936;7.184;2024-01-30T08:41:53;7.40;99.90
46608;DHT22;32330;51.936;7.184;2024-01-30T08:44:20;7.60;99.90
46608;DHT22;32330;51.936;7.184;2024-01-30T08:46:47;7.70;99.90
46608;DHT22;32330;51.936;7.184;2024-01-30T08:49:17;7.80;99.90
46608;DHT22;32330;51.936;7.184;2024-01-30T08:51:44;8.00;99.90
46608;DHT22;32330;51.936;7.184;2024-01-30T08:54:11;8.10;99.90
46608;DHT22;32330;51.936;7.184;2024-01-30T08:56:38;8.30;99.90
46608;DHT22;32330;51.936;7.184;2024-01-30T08:59:06;8.40;99.90
46608;DHT22;32330;51.936;7.184;2024-01-30T09:01:33;8.40;99.90
46608;DHT22;32330;51.936;7.184;2024-01-30T09:04:00;8.40;99.90
46608;DHT22;32330;51.936;7.184;2024-01-30T09:06:27;8.50;99.90
46608;DHT22;32330;51.936;7.184;2024-01-30T09:08:54;8.50;99.90
46608;DHT22;32330;51.936;7.184;2024-01-30T09:11:23;8.50;99.90
46608;DHT22;32330;51.936;7.184;2024-01-30T09:13:50;8.60;99.90
46608;DHT22;32330;51.936;7.184;2024-01-30T09:16:18;8.60;99.90
46608;DHT22;32330;51.936;7.184;2024-01-30T09:18:45;8.70;99.90
46608;DHT22;32330;51.936;7.184;2024-01-30T09:21:12;8.70;99.90
46608;DHT22;32330;51.936;7.184;2024-01-30T09:23:39;8.80;99.90
46608;DHT22;32330;51.936;7.184;2024-01-30T09:26:06;8.80;99.90
46608;DHT22;32330;51.936;7.184;2024-01-30T09:28:35;8.80;99.90
46608;DHT22;32330;51.936;7.184;2024-01-30T09:31:01;8.80;99.90
46608;DHT22;32330;51.936;7.184;2024-01-30T09:33:30;8.90;99.90
46608;DHT22;32330;51.936;7.184;2024-01-30T09:35:57;8.90;99.90
46608;DHT22;32330;51.936;7.184;2024-01-30T09:38:24;8.90;99.90
46608;DHT22;32330;51.936;7.184;2024-01-30T09:40:54;8.90;99.90
46608;DHT22;32330;51.936;7.184;2024-01-30T09:43:23;8.90;99.90
46608;DHT22;32330;51.936;7.184;2024-01-30T09:45:50;8.90;99.90
46608;DHT22;32330;51.936;7.184;2024-01-30T09:48:17;9.10;99.90
46608;DHT22;32330;51.936;7.184;2024-01-30T09:50:46;9.10;99.90
46608;DHT22;32330;51.936;7.184;2024-01-30T09:53:14;9.00;99.90
46608;DHT22;32330;51.936;7.184;2024-01-30T09:55:43;9.10;99.90
46608;DHT22;32330;51.936;7.184;2024-01-30T09:58:12;9.20;99.90
46608;DHT22;32330;51.936;7.184;2024-01-30T10:00:39;9.20;99.90
46608;DHT22;32330;51.936;7.184;2024-01-30T10:03:06;9.30;99.90
46608;DHT22;32330;51.936;7.184;2024-01-30T10:05:35;9.40;99.90
46608;DHT22;32330;51.936;7.184;2024-01-30T10:08:07;9.50;99.90
46608;DHT22;32330;51.936;7.184;2024-01-30T10:10:34;9.50;99.90
46608;DHT22;32330;51.936;7.184;2024-01-30T10:13:02;9.60;99.90
46608;DHT22;32330;51.936;7.184;2024-01-30T10:15:29;9.60;99.90
46608;DHT22;32330;51.936;7.184;2024-01-30T10:17:56;9.70;99.90
46608;DHT22;32330;51.936;7.184;2024-01-30T10:20:25;9.70;99.90
46608;DHT22;32330;51.936;7.184;2024-01-30T10:22:52;9.70;99.90
46608;DHT22;32330;51.936;7.184;2024-01-30T10:25:21;9.80;99.90
46608;DHT22;32330;51.936;7.184;2024-01-30T10:27:52;9.80;99.90
46608;DHT22;32330;51.936;7.184;2024-01-30T10:30:20;9.90;99.90
46608;DHT22;32330;51.936;7.184;2024-01-30T10:32:47;10.00;99.90
46608;DHT22;32330;51.936;7.184;2024-01-30T10:35:15;10.10;99.90
46608;DHT22;32330;51.936;7.184;2024-01-30T10:37:43;10.20;99.90
46608;DHT22;32330;51.936;7.184;2024-01-30T10:40:13;10.20;99.90
46608;DHT22;32330;51.936;7.184;2024-01-30T10:42:43;10.30;99.90
46608;DHT22;32330;51.936;7.184;2024-01-30T10:45:11;10.40;99.90
46608;DHT22;32330;51.936;7.184;2024-01-30T10:47:40;10.40;99.90
46608;DHT22;32330;51.936;7.184;2024-01-30T10:50:08;10.50;99.90
46608;DHT22;32330;51.936;7.184;2024-01-30T10:52:36;10.60;99.90
46608;DHT22;32330;51.936;7.184;2024-01-30T10:55:05;10.60;99.90
46608;DHT22;32330;51.936;7.184;2024-01-30T10:57:34;10.70;99.90
46608;DHT22;32330;51.936;7.184;2024-01-30T11:00:05;10.70;99.90
46608;DHT22;32330;51.936;7.184;2024-01-30T11:02:37;10.80;99.90
46608;DHT22;32330;51.936;7.184;2024-01-30T11:05:05;10.80;99.90
46608;DHT22;32330;51.936;7.184;2024-01-30T11:07:32;10.90;99.90
46608;DHT22;32330;51.936;7.184;2024-01-30T11:10:01;10.90;99.90
46608;DHT22;32330;51.936;7.184;2024-01-30T11:12:29;11.00;99.90
46608;DHT22;32330;51.936;7.184;2024-01-30T11:15:03;11.00;99.90
46608;DHT22;32330;51.936;7.184;2024-01-30T11:17:45;11.10;99.90
46608;DHT22;32330;51.936;7.184;2024-01-30T11:20:14;11.10;99.90
46608;DHT22;32330;51.936;7.184;2024-01-30T11:22:42;11.10;99.90
46608;DHT22;32330;51.936;7.184;2024-01-30T11:25:14;11.20;99.90
46608;DHT22;32330;51.936;7.184;2024-01-30T11:27:42;11.20;99.90
46608;DHT22;32330;51.936;7.184;2024-01-30T11:30:10;11.20;99.90
46608;DHT22;32330;51.936;7.184;2024-01-30T11:32:37;11.20;99.90
46608;DHT22;32330;51.936;7.184;2024-01-30T11:35:04;11.30;99.90
46608;DHT22;32330;51.936;7.184;2024-01-30T11:37:32;11.40;99.90
46608;DHT22;32330;51.936;7.184;2024-01-30T11:39:59;11.40;99.90
46608;DHT22;32330;51.936;7.184;2024-01-30T11:42:26;11.40;99.90
46608;DHT22;32330;51.936;7.184;2024-01-30T11:44:54;11.40;99.90
46608;DHT22;32330;51.936;7.184;2024-01-30T11:47:22;11.40;99.90
46608;DHT22;32330;51.936;7.184;2024-01-30T11:49:49;11.40;99.90
46608;DHT22;32330;51.936;7.184;2024-01-30T11:52:16;11.50;99.90
46608;DHT22;32330;51.936;7.184;2024-01-30T11:54:43;11.50;99.90
46608;DHT22;32330;51.936;7.184;2024-01-30T11:57:10;11.50;99.90
46608;DHT22;32330;51.936;7.184;2024-01-30T11:59:37;11.50;99.90
46608;DHT22;32330;51.936;7.184;2024-01-30T12:02:04;11.50;99.90
46608;DHT22;32330;51.936;7.184;2024-01-30T12:04:33;11.60;99.90
46608;DHT22;32330;51.936;7.184;2024-01-30T12:06:59;11.70;99.90
46608;DHT22;32330;51.936;7.184;2024-01-30T12:09:29;11.80;99.90
46608;DHT22;32330;51.936;7.184;2024-01-30T12:11:56;11.80;99.90
46608;DHT22;32330;51.936;7.184;2024-01-30T12:14:24;11.70;99.90
46608;DHT22;32330;51.936;7.184;2024-01-30T12:16:51;11.70;99.90
46608;DHT22;32330;51.936;7.184;2024-01-30T12:19:22;11.70;99.90
46608;DHT22;32330;51.936;7.184;2024-01-30T12:21:55;11.70;99.90
46608;DHT22;32330;51.936;7.184;2024-01-30T12:24:24;11.70;99.90
46608;DHT22;32330;51.936;7.184;2024-01-30T12:26:51;11.60;99.90
46608;DHT22;32330;51.936;7.184;2024-01-30T12:29:20;11.60;99.90
46608;DHT22;32330;51.936;7.184;2024-01-30T12:31:47;11.70;99.90
46608;DHT22;32330;51.936;7.184;2024-01-30T12:34:14;11.70;99.90
46608;DHT22;32330;51.936;7.184;2024-01-30T12:36:43;11.80;99.90
46608;DHT22;32330;51.936;7.184;2024-01-30T12:39:12;11.80;99.90
46608;DHT22;32330;51.936;7.184;2024-01-30T12:41:40;11.80;99.90
46608;DHT22;32330;51.936;7.184;2024-01-30T12:44:07;11.80;99.90
46608;DHT22;32330;51.936;7.184;2024-01-30T12:46:34;11.80;99.90
46608;DHT22;32330;51.936;7.184;2024-01-30T12:49:01;11.80;99.90
46608;DHT22;32330;51.936;7.184;2024-01-30T12:51:28;11.80;99.90
46608;DHT22;32330;51.936;7.184;2024-01-30T12:53:55;11.80;99.90
46608;DHT22;32330;51.936;7.184;2024-01-30T12:56:24;11.80;99.90
46608;DHT22;32330;51.936;7.184;2024-01-30T12:58:51;11.80;99.90
46608;DHT22;32330;51.936;7.184;2024-01-30T13:01:18;11.80;99.90
46608;DHT22;32330;51.936;7.184;2024-01-30T13:03:45;11.80;99.90
46608;DHT22;32330;51.936;7.184;2024-01-30T13:06:12;11.80;99.90
46608;DHT22;32330;51.936;7.184;2024-01-30T13:08:51;11.80;99.90
46608;DHT22;32330;51.936;7.184;2024-01-30T13:11:18;11.80;99.90
46608;DHT22;32330;51.936;7.184;2024-01-30T13:13:46;11.80;99.90
46608;DHT22;32330;51.936;7.184;2024-01-30T13:16:13;11.80;99.90
46608;DHT22;32330;51.936;7.184;2024-01-30T13:18:40;11.80;99.90
46608;DHT22;32330;51.936;7.184;2024-01-30T13:21:07;11.80;99.90
46608;DHT22;32330;51.936;7.184;2024-01-30T13:23:34;11.90;99.90
46608;DHT22;32330;51.936;7.184;2024-01-30T13:26:01;11.90;99.90
46608;DHT22;32330;51.936;7.184;2024-01-30T13:28:28;11.90;99.90
46608;DHT22;32330;51.936;7.184;2024-01-30T13:30:56;11.80;99.90
46608;DHT22;32330;51.936;7.184;2024-01-30T13:33:23;11.80;99.90
46608;DHT22;32330;51.936;7.184;2024-01-30T13:35:50;11.80;99.90
46608;DHT22;32330;51.936;7.184;2024-01-30T13:38:17;11.80;99.90
46608;DHT22;32330;51.936;7.184;2024-01-30T13:40:44;11.80;99.90
46608;DHT22;32330;51.936;7.184;2024-01-30T13:43:13;11.70;99.90
46608;DHT22;32330;51.936;7.184;2024-01-30T13:45:40;11.80;99.90
46608;DHT22;32330;51.936;7.184;2024-01-30T13:48:09;11.80;99.90
46608;DHT22;32330;51.936;7.184;2024-01-30T13:50:38;11.90;99.90
46608;DHT22;32330;51.936;7.184;2024-01-30T13:53:04;11.80;99.90
46608;DHT22;32330;51.936;7.184;2024-01-30T13:55:34;11.90;99.90
46608;DHT22;32330;51.936;7.184;2024-01-30T13:58:04;11.90;99.90
46608;DHT22;32330;51.936;7.184;2024-01-30T14:00:31;11.90;99.90
46608;DHT22;32330;51.936;7.184;2024-01-30T14:03:00;12.00;99.90
46608;DHT22;32330;51.936;7.184;2024-01-30T14:05:31;12.00;99.90
46608;DHT22;32330;51.936;7.184;2024-01-30T14:08:00;11.90;99.90
46608;DHT22;32330;51.936;7.184;2024-01-30T14:10:27;11.90;99.90
46608;DHT22;32330;51.936;7.184;2024-01-30T14:12:54;11.80;99.90
46608;DHT22;32330;51.936;7.184;2024-01-30T14:15:25;11.80;99.90
46608;DHT22;32330;51.936;7.184;2024-01-30T14:17:52;11.90;99.90
46608;DHT22;32330;51.936;7.184;2024-01-30T14:20:19;11.90;99.90
46608;DHT22;32330;51.936;7.184;2024-01-30T14:22:47;11.80;99.90
46608;DHT22;32330;51.936;7.184;2024-01-30T14:25:15;11.80;99.90
46608;DHT22;32330;51.936;7.184;2024-01-30T14:27:45;11.90;99.90
46608;DHT22;32330;51.936;7.184;2024-01-30T14:30:12;11.80;99.90
46608;DHT22;32330;51.936;7.184;2024-01-30T14:32:39;11.80;99.90
46608;DHT22;32330;51.936;7.184;2024-01-30T14:35:08;11.80;99.90
46608;DHT22;32330;51.936;7.184;2024-01-30T14:37:37;11.80;99.90
46608;DHT22;32330;51.936;7.184;2024-01-30T14:40:07;11.70;99.90
46608;DHT22;32330;51.936;7.184;2024-01-30T14:42:34;11.80;99.90
46608;DHT22;32330;51.936;7.184;2024-01-30T14:45:02;11.70;99.90
46608;DHT22;32330;51.936;7.184;2024-01-30T14:47:29;11.70;99.90
46608;DHT22;32330;51.936;7.184;2024-01-30T14:49:56;11.70;99.90
46608;DHT22;32330;51.936;7.184;2024-01-30T14:52:23;11.60;99.90
46608;DHT22;32330;51.936;7.184;2024-01-30T14:54:50;11.60;99.90
46608;DHT22;32330;51.936;7.184;2024-01-30T14:57:19;11.50;99.90
46608;DHT22;32330;51.936;7.184;2024-01-30T14:59:46;11.50;99.90
46608;DHT22;32330;51.936;7.184;2024-01-30T15:02:14;11.50;99.90
46608;DHT22;32330;51.936;7.184;2024-01-30T15:04:41;11.50;99.90
46608;DHT22;32330;51.936;7.184;2024-01-30T15:07:08;11.40;99.90
46608;DHT22;32330;51.936;7.184;2024-01-30T15:09:35;11.40;94.50
46608;DHT22;32330;51.936;7.184;2024-01-30T15:12:03;11.50;95.00
46608;DHT22;32330;51.936;7.184;2024-01-30T15:14:31;11.40;92.20
46608;DHT22;32330;51.936;7.184;2024-01-30T15:16:58;11.40;89.40
46608;DHT22;32330;51.936;7.184;2024-01-30T15:19:25;11.40;89.70
46608;DHT22;32330;51.936;7.184;2024-01-30T15:21:52;11.30;83.20
46608;DHT22;32330;51.936;7.184;2024-01-30T15:24:19;11.30;86.40
46608;DHT22;32330;51.936;7.184;2024-01-30T15:26:50;11.30;13.20
46608;DHT22;32330;51.936;7.184;2024-01-30T15:29:17;11.20;1.00
46608;DHT22;32330;51.936;7.184;2024-01-30T15:31:48;11.20;1.00
46608;DHT22;32330;51.936;7.184;2024-01-30T15:34:15;11.20;1.00
46608;DHT22;32330;51.936;7.184;2024-01-30T15:36:42;11.10;1.00
46608;DHT22;32330;51.936;7.184;2024-01-30T15:39:09;11.10;99.90
46608;DHT22;32330;51.936;7.184;2024-01-30T15:41:37;11.00;99.90